Time;durP1;ratioP1;P1;durP2;ratioP2;P2;SDS_P1;SDS_P2;PMS_P1;PMS_P2;Temp;Humidity;BMP_temperature;BMP_pressure;BME280_temperature;BME280_humidity;BME280_pressure;Samples;Min_cycle;Max_cycle;Signal;HPM_P1;HPM_P2
2022/05/01 00:01:42;;;;;;;6.57;4.00;;;10.20;93.60;9.40;100913;;;;585462;241;24083;-74
2022/05/01 00:04:10;;;;;;;3.90;3.50;;;10.10;93.70;9.40;100919;;;;595768;241;24061;-76
2022/05/01 00:06:38;;;;;;;5.87;3.27;;;10.10;94.00;9.30;100915;;;;595730;241;24105;-75
2022/05/01 00:09:06;;;;;;;11.10;3.70;;;10.10;94.10;9.30;100912;;;;585769;238;24068;-76
2022/05/01 00:11:34;;;;;;;3.53;3.20;;;10.10;94.20;9.30;100915;;;;587601;240;24103;-75
2022/05/01 00:14:02;;;;;;;5.67;2.97;;;10.00;94.20;9.30;100907;;;;586750;240;24060;-76
2022/05/01 00:16:33;;;;;;;4.10;3.40;;;10.00;94.50;9.30;100922;;;;586548;240;24074;-75
2022/05/01 00:18:59;;;;;;;5.33;3.43;;;10.00;94.50;9.30;100917;;;;586124;240;24077;-75
2022/05/01 00:21:30;;;;;;;3.83;3.47;;;10.00;94.50;9.20;100916;;;;586064;240;24044;-76
2022/05/01 00:23:54;;;;;;;3.67;3.23;;;10.00;94.60;9.20;100919;;;;596309;240;24109;-75
2022/05/01 00:26:22;;;;;;;5.93;3.00;;;9.90;95.00;9.20;100922;;;;586255;240;24052;-75
2022/05/01 00:28:53;;;;;;;5.43;3.37;;;9.90;95.10;9.20;100913;;;;585981;240;24071;-75
2022/05/01 00:31:18;;;;;;;3.33;2.83;;;9.90;95.20;9.10;100911;;;;586605;240;24095;-75
2022/05/01 00:36:33;;;;;;;2.93;2.70;;;9.80;95.70;9.10;100911;;;;591772;240;24050;-75
2022/05/01 00:39:03;;;;;;;3.83;3.20;;;9.80;95.60;9.00;100910;;;;595547;240;24076;-75
2022/05/01 00:41:31;;;;;;;5.00;2.67;;;9.80;95.70;9.00;100908;;;;585656;240;24085;-78
2022/05/01 00:44:08;;;;;;;4.47;3.00;;;9.70;95.90;9.00;100919;;;;586439;240;25130;-76
2022/05/01 00:46:34;;;;;;;3.60;3.20;;;9.70;95.90;9.00;100914;;;;585634;241;24119;-76
2022/05/01 00:49:03;;;;;;;4.47;3.20;;;9.70;96.20;9.00;100925;;;;586124;236;24073;-75
2022/05/01 00:51:30;;;;;;;4.23;2.50;;;9.70;96.20;8.90;100916;;;;585906;241;24081;-74
2022/05/01 00:53:58;;;;;;;4.67;3.23;;;9.70;96.30;8.90;100924;;;;585311;241;25098;-77
2022/05/01 00:56:26;;;;;;;7.80;3.50;;;9.70;96.60;8.90;100921;;;;595222;241;24126;-75
2022/05/01 00:58:54;;;;;;;4.03;2.77;;;9.70;96.70;8.90;100925;;;;585338;241;24081;-75
2022/05/01 01:01:22;;;;;;;5.00;3.30;;;9.70;97.00;8.90;100933;;;;591140;241;24056;-78
2022/05/01 01:03:51;;;;;;;5.97;3.13;;;9.70;97.10;8.90;100930;;;;595738;241;24050;-77
2022/05/01 01:06:18;;;;;;;6.07;3.23;;;9.70;97.20;8.90;100929;;;;585794;241;24042;-76
2022/05/01 01:08:46;;;;;;;4.83;3.20;;;9.70;97.30;8.90;100934;;;;585901;241;24086;-78
2022/05/01 01:11:13;;;;;;;6.77;2.87;;;9.60;97.50;8.90;100924;;;;585589;241;24053;-75
2022/05/01 01:13:42;;;;;;;4.63;3.00;;;9.60;97.50;8.90;100924;;;;585757;241;24057;-76
2022/05/01 01:16:09;;;;;;;4.97;3.03;;;9.60;97.50;8.90;100927;;;;585640;241;24061;-75
2022/05/01 01:18:40;;;;;;;4.43;2.80;;;9.60;97.50;8.90;100931;;;;585773;241;24130;-75
2022/05/01 01:21:05;;;;;;;4.43;3.17;;;9.60;97.60;8.80;100927;;;;586779;240;24106;-76
2022/05/01 01:23:37;;;;;;;4.47;2.83;;;9.60;98.10;8.80;100929;;;;587835;240;24086;-76
2022/05/01 01:26:05;;;;;;;3.87;3.03;;;9.60;97.90;8.80;100922;;;;586903;240;24079;-75
2022/05/01 01:28:30;;;;;;;3.60;2.73;;;9.50;97.90;8.80;100935;;;;587240;240;24054;-75
2022/05/01 01:33:43;;;;;;;3.30;2.80;;;9.50;97.80;8.70;100925;;;;592023;238;24115;-75
2022/05/01 01:36:11;;;;;;;3.17;2.90;;;9.50;97.90;8.70;100919;;;;591579;240;24121;-75
2022/05/01 01:38:42;;;;;;;6.23;3.03;;;9.50;97.90;8.70;100919;;;;586766;240;24075;-75
2022/05/01 01:41:07;;;;;;;4.00;2.93;;;9.50;97.90;8.70;100926;;;;585323;240;24115;-75
2022/05/01 01:43:36;;;;;;;2.80;2.60;;;9.40;97.90;8.70;100913;;;;585631;240;24183;-75
2022/05/01 01:46:04;;;;;;;5.00;2.97;;;9.40;97.90;8.70;100918;;;;585536;240;24126;-76
2022/05/01 01:48:32;;;;;;;4.37;3.43;;;9.50;98.00;8.70;100911;;;;585561;240;24052;-79
2022/05/01 01:51:00;;;;;;;3.43;3.00;;;9.40;97.90;8.60;100921;;;;585535;240;24068;-77
2022/05/01 01:53:28;;;;;;;3.90;3.07;;;9.40;98.00;8.60;100916;;;;586360;240;24138;-75
2022/05/01 01:55:56;;;;;;;6.40;3.30;;;9.40;98.00;8.60;100910;;;;586506;240;24064;-75
2022/05/01 01:58:23;;;;;;;3.90;3.20;;;9.40;98.10;8.60;100917;;;;586130;241;24108;-76
2022/05/01 02:00:51;;;;;;;3.53;2.93;;;9.40;98.50;8.50;100921;;;;586136;241;24067;-77
2022/05/01 02:03:19;;;;;;;4.17;3.00;;;9.30;98.60;8.50;100915;;;;595410;241;24059;-76
2022/05/01 02:05:47;;;;;;;7.63;3.77;;;9.30;98.70;8.50;100914;;;;586109;241;24092;-75
2022/05/01 02:08:15;;;;;;;3.90;3.10;;;9.30;99.20;8.50;100912;;;;595774;237;24064;-77
2022/05/01 02:10:46;;;;;;;5.57;2.77;;;9.30;99.10;8.40;100913;;;;585726;241;24049;-77
2022/05/01 02:13:12;;;;;;;4.17;3.23;;;9.20;99.40;8.40;100916;;;;586243;241;24073;-76
2022/05/01 02:15:39;;;;;;;3.73;3.10;;;9.20;99.40;8.40;100914;;;;585686;241;24064;-74
2022/05/01 02:18:07;;;;;;;4.30;2.87;;;9.20;99.50;8.40;100922;;;;595719;237;24161;-76
2022/05/01 02:23:06;;;;;;;4.83;2.80;;;9.10;99.70;8.30;100917;;;;582203;237;24050;-75
2022/05/01 02:25:36;;;;;;;4.67;3.10;;;9.10;99.80;8.30;100914;;;;585700;241;24042;-75
2022/05/01 02:28:04;;;;;;;8.17;3.17;;;9.00;99.90;8.20;100908;;;;585622;241;24061;-75
2022/05/01 02:30:30;;;;;;;5.37;3.10;;;9.00;99.90;8.20;100906;;;;585610;241;24063;-75
2022/05/01 02:32:58;;;;;;;4.03;3.00;;;9.00;99.90;8.20;100907;;;;586400;240;24088;-75
2022/05/01 02:35:26;;;;;;;3.00;2.50;;;9.00;99.90;8.10;100904;;;;586959;240;24080;-75
2022/05/01 02:37:55;;;;;;;8.23;3.40;;;8.90;99.90;8.10;100915;;;;586303;240;24061;-74
2022/05/01 02:40:23;;;;;;;4.13;2.57;;;8.90;99.90;8.10;100909;;;;586067;240;24077;-75
2022/05/01 02:42:51;;;;;;;5.03;2.97;;;8.90;99.90;8.00;100907;;;;586258;240;24075;-74
2022/05/01 02:45:19;;;;;;;3.53;3.00;;;8.90;99.90;8.00;100911;;;;585830;240;26241;-76
2022/05/01 02:47:47;;;;;;;4.47;3.13;;;8.90;99.90;8.00;100910;;;;585778;240;24057;-75
2022/05/01 02:50:14;;;;;;;6.60;3.10;;;8.90;99.90;8.00;100916;;;;585840;240;24065;-75
2022/05/01 02:52:42;;;;;;;5.17;3.37;;;8.80;99.90;8.00;100911;;;;585564;240;24057;-74
2022/05/01 02:55:10;;;;;;;3.20;2.60;;;8.80;99.90;8.00;100906;;;;586529;240;24090;-74
2022/05/01 02:57:38;;;;;;;5.23;3.27;;;8.80;99.90;8.00;100912;;;;586463;240;25148;-74
2022/05/01 03:00:07;;;;;;;3.13;2.83;;;8.80;99.90;8.00;100916;;;;585441;240;24082;-74
2022/05/01 03:02:34;;;;;;;3.83;3.03;;;8.80;99.90;8.00;100906;;;;585635;240;24069;-74
2022/05/01 03:05:04;;;;;;;3.33;2.93;;;8.80;99.90;7.90;100907;;;;585562;240;24069;-74
2022/05/01 03:07:30;;;;;;;3.60;2.67;;;8.80;99.90;7.90;100902;;;;585582;240;24063;-75
2022/05/01 03:09:58;;;;;;;4.23;2.80;;;8.80;99.90;7.90;100901;;;;585716;241;24063;-75
2022/05/01 03:12:26;;;;;;;4.10;3.30;;;8.70;99.90;7.90;100900;;;;585708;241;24061;-76
2022/05/01 03:14:54;;;;;;;5.40;2.97;;;8.70;99.90;7.90;100898;;;;585721;241;24051;-75
2022/05/01 03:17:21;;;;;;;3.63;3.00;;;8.70;99.90;7.90;100894;;;;585706;241;24057;-77
2022/05/01 03:22:35;;;;;;;5.63;3.27;;;8.80;99.90;7.90;100902;;;;591487;241;24071;-75
2022/05/01 03:25:03;;;;;;;5.17;3.07;;;8.70;99.90;7.90;100903;;;;585691;241;24124;-75
2022/05/01 03:27:31;;;;;;;4.97;3.73;;;8.70;99.90;7.90;100903;;;;580606;241;35148;-75
2022/05/01 03:30:17;;;;;;;8.70;3.73;;;8.80;99.90;8.00;100910;;;;585656;241;25406;-75
2022/05/01 03:32:46;;;;;;;5.87;3.80;;;8.80;99.90;8.00;100906;;;;585648;241;24042;-75
2022/05/01 03:35:14;;;;;;;7.30;3.43;;;8.80;99.90;8.00;100899;;;;585725;241;24061;-75
2022/05/01 03:37:42;;;;;;;3.87;3.23;;;8.90;99.90;8.10;100906;;;;585123;241;24105;-76
2022/05/01 03:40:13;;;;;;;4.90;3.67;;;8.90;99.90;8.10;100905;;;;586197;241;24076;-75
2022/05/01 03:42:44;;;;;;;5.57;3.80;;;8.90;99.90;8.10;100908;;;;586115;241;24070;-75
2022/05/01 03:45:09;;;;;;;6.93;3.10;;;8.90;99.90;8.20;100897;;;;587175;240;24114;-75
2022/05/01 03:47:38;;;;;;;3.10;2.80;;;9.00;99.90;8.20;100902;;;;597651;240;24089;-75
2022/05/01 03:50:06;;;;;;;3.63;3.17;;;9.00;99.90;8.20;100906;;;;586072;240;24084;-75
2022/05/01 03:52:34;;;;;;;4.43;3.10;;;9.00;99.90;8.20;100897;;;;596556;240;24060;-75
2022/05/01 03:55:01;;;;;;;6.93;3.23;;;9.00;99.90;8.20;100890;;;;586215;240;24174;-75
2022/05/01 03:57:29;;;;;;;3.47;3.07;;;9.00;99.90;8.30;100897;;;;586215;240;24209;-75
2022/05/01 03:59:57;;;;;;;4.17;2.90;;;9.00;99.90;8.30;100901;;;;586239;240;24045;-76
2022/05/01 04:02:25;;;;;;;4.00;3.40;;;9.10;99.90;8.30;100902;;;;586162;240;24189;-76
2022/05/01 04:04:53;;;;;;;3.57;3.00;;;9.10;99.90;8.30;100890;;;;585921;240;24042;-76
2022/05/01 04:07:21;;;;;;;3.90;3.20;;;9.20;99.90;8.40;100907;;;;585938;240;24043;-76
2022/05/01 04:09:49;;;;;;;3.10;2.67;;;9.20;99.90;8.50;100898;;;;585959;240;24151;-75
2022/05/01 04:12:17;;;;;;;4.83;3.63;;;9.30;99.90;8.60;100914;;;;585601;240;24132;-76
2022/05/01 04:14:45;;;;;;;7.30;3.20;;;9.40;99.90;8.60;100905;;;;595722;240;24065;-78
2022/05/01 04:17:13;;;;;;;7.13;3.37;;;9.50;99.90;8.60;100910;;;;585442;240;24075;-78
2022/05/01 04:19:41;;;;;;;4.63;3.83;;;9.50;99.90;8.70;100916;;;;580389;240;46143;-75
2022/05/01 04:22:08;;;;;;;4.13;3.40;;;9.50;99.90;8.70;100901;;;;585193;241;24059;-77
2022/05/01 04:24:37;;;;;;;6.87;3.77;;;9.50;99.90;8.70;100919;;;;585353;241;24079;-76
2022/05/01 04:27:06;;;;;;;5.70;3.53;;;9.50;99.90;8.70;100922;;;;585365;241;24081;-76
2022/05/01 04:29:40;;;;;;;4.97;3.63;;;9.50;99.90;8.70;100926;;;;586161;241;24070;-77
2022/05/01 04:32:06;;;;;;;6.97;3.67;;;9.50;99.90;8.80;100920;;;;595653;241;24064;-79
2022/05/01 04:34:34;;;;;;;4.77;3.40;;;9.60;99.90;8.80;100917;;;;586168;241;24149;-79
2022/05/01 04:37:02;;;;;;;6.10;3.60;;;9.60;99.90;8.80;100904;;;;595985;241;24083;-79
2022/05/01 04:39:30;;;;;;;3.50;3.20;;;9.60;99.90;8.80;100919;;;;585798;241;24093;-75
2022/05/01 04:41:57;;;;;;;5.33;3.60;;;9.60;99.90;8.90;100921;;;;585718;241;24055;-78
2022/05/01 04:44:25;;;;;;;8.47;3.50;;;9.70;99.90;8.90;100929;;;;585711;241;24091;-75
2022/05/01 04:46:53;;;;;;;5.23;3.40;;;9.70;99.90;9.00;100937;;;;585621;241;24089;-75
2022/05/01 04:49:22;;;;;;;3.30;3.03;;;9.80;99.90;9.10;100936;;;;585597;241;24061;-75
2022/05/01 04:51:49;;;;;;;8.93;3.20;;;9.90;99.90;9.10;100931;;;;585577;241;24115;-75
2022/05/01 04:54:17;;;;;;;5.77;3.23;;;9.90;99.90;9.20;100931;;;;585709;241;24050;-75
2022/05/01 04:59:32;;;;;;;3.23;2.93;;;9.90;99.90;9.20;100929;;;;592544;240;24103;-75
2022/05/01 05:02:00;;;;;;;6.60;3.10;;;10.00;99.90;9.30;100936;;;;586517;240;24126;-75
2022/05/01 05:04:28;;;;;;;3.73;3.07;;;10.00;99.90;9.30;100935;;;;596531;240;24118;-75
2022/05/01 05:06:55;;;;;;;8.33;3.70;;;10.00;99.90;9.30;100933;;;;586276;240;24090;-75
2022/05/01 05:12:09;;;;;;;8.13;3.33;;;10.00;99.90;9.30;100927;;;;592009;240;24064;-75
2022/05/01 05:14:38;;;;;;;5.13;3.17;;;10.00;99.90;9.30;100931;;;;585735;240;24073;-75
2022/05/01 05:17:06;;;;;;;4.27;3.10;;;10.00;99.90;9.20;100925;;;;591475;236;24149;-76
2022/05/01 05:19:34;;;;;;;5.17;3.77;;;10.00;99.90;9.20;100940;;;;586416;240;24198;-74
2022/05/01 05:22:01;;;;;;;8.03;3.37;;;10.00;99.90;9.20;100935;;;;586280;240;24175;-75
2022/05/01 05:24:29;;;;;;;5.30;3.10;;;10.00;99.90;9.20;100945;;;;585639;240;24072;-74
2022/05/01 05:26:57;;;;;;;8.17;3.80;;;9.90;99.90;9.20;100940;;;;585593;240;24079;-75
2022/05/01 05:29:25;;;;;;;5.67;3.63;;;10.00;99.90;9.30;100945;;;;586508;240;24158;-75
2022/05/01 05:31:53;;;;;;;4.93;3.80;;;10.00;99.90;9.40;100939;;;;585486;241;24089;-75
2022/05/01 05:34:24;;;;;;;10.27;4.43;;;10.10;99.90;9.40;100954;;;;585683;241;24050;-76
2022/05/01 05:36:49;;;;;;;6.17;4.40;;;10.10;99.90;9.40;100941;;;;594957;241;24069;-74
2022/05/01 05:39:17;;;;;;;8.13;4.60;;;10.20;99.90;9.50;100941;;;;595736;241;24058;-75
2022/05/01 05:41:48;;;;;;;5.60;4.33;;;10.20;99.90;9.60;100949;;;;585680;241;24069;-76
2022/05/01 05:44:14;;;;;;;5.83;3.83;;;10.40;99.90;9.70;100944;;;;595367;241;24080;-76
2022/05/01 05:46:42;;;;;;;8.10;3.97;;;10.40;99.90;10.00;100946;;;;585723;241;24140;-78
2022/05/01 05:49:10;;;;;;;7.53;3.47;;;10.70;99.90;10.40;100951;;;;585964;241;24230;-77
2022/05/01 05:51:37;;;;;;;7.13;3.97;;;11.00;99.90;10.90;100954;;;;585621;241;24120;-77
2022/05/01 05:54:06;;;;;;;4.40;3.73;;;11.50;99.90;11.50;100956;;;;585739;241;24058;-76
2022/05/01 05:56:33;;;;;;;3.93;3.57;;;12.10;99.90;11.90;100954;;;;585558;241;24066;-76
2022/05/01 05:59:01;;;;;;;6.97;3.60;;;12.50;99.90;12.10;100953;;;;596444;241;24066;-76
2022/05/01 06:01:29;;;;;;;4.27;3.40;;;12.70;99.90;12.20;100943;;;;585725;241;24067;-78
2022/05/01 06:03:58;;;;;;;4.80;3.33;;;13.00;99.90;12.30;100947;;;;586110;241;24063;-77
2022/05/01 06:06:26;;;;;;;4.63;3.10;;;13.00;99.90;12.20;100951;;;;585737;241;24098;-77
2022/05/01 06:08:55;;;;;;;5.53;3.17;;;13.00;99.90;12.30;100952;;;;586946;240;24061;-77
2022/05/01 06:11:23;;;;;;;4.53;3.40;;;12.90;99.90;12.20;100949;;;;586881;240;24040;-78
2022/05/01 06:13:52;;;;;;;3.77;2.70;;;12.90;99.90;12.20;100951;;;;586515;240;24079;-75
2022/05/01 06:16:20;;;;;;;4.10;2.83;;;12.90;99.90;12.20;100951;;;;586304;240;24107;-78
2022/05/01 06:18:48;;;;;;;3.80;2.83;;;12.80;99.90;12.10;100942;;;;586534;240;24081;-78
2022/05/01 06:21:16;;;;;;;5.03;3.47;;;12.80;99.90;12.10;100948;;;;586921;240;24058;-78
2022/05/01 06:23:47;;;;;;;6.73;3.20;;;12.80;99.90;12.10;100951;;;;586611;240;24147;-78
2022/05/01 06:26:12;;;;;;;4.30;3.50;;;12.80;99.90;12.20;100955;;;;586639;240;24056;-78
2022/05/01 06:28:40;;;;;;;4.20;3.50;;;12.80;99.90;12.20;100951;;;;587184;240;24075;-77
2022/05/01 06:31:11;;;;;;;5.43;4.40;;;12.80;99.80;12.10;100951;;;;587074;240;24061;-75
2022/05/01 06:33:36;;;;;;;10.07;5.70;;;12.80;99.40;12.10;100951;;;;586582;240;24094;-78
2022/05/01 06:36:04;;;;;;;7.03;4.97;;;12.70;99.20;12.00;100951;;;;596791;240;24156;-78
2022/05/01 06:38:32;;;;;;;6.83;5.07;;;12.70;99.50;12.10;100960;;;;586979;240;24064;-78
2022/05/01 06:41:01;;;;;;;4.00;3.60;;;12.80;99.20;12.10;100964;;;;586585;240;24126;-79
2022/05/01 06:43:30;;;;;;;6.60;4.17;;;12.70;99.30;12.00;100960;;;;586233;241;24057;-78
2022/05/01 06:45:58;;;;;;;7.13;3.53;;;12.70;99.10;12.00;100953;;;;595763;241;24148;-79
2022/05/01 06:48:26;;;;;;;4.90;3.20;;;12.70;99.60;12.20;100954;;;;586520;241;24057;-79
2022/05/01 06:50:54;;;;;;;6.83;3.67;;;12.80;99.80;13.00;100948;;;;585835;241;24112;-74
2022/05/01 06:53:21;;;;;;;4.13;3.20;;;13.40;99.90;13.80;100956;;;;585709;241;24050;-78
2022/05/01 06:55:49;;;;;;;5.63;3.10;;;14.20;98.70;14.30;100957;;;;585668;241;24049;-76
2022/05/01 06:58:17;;;;;;;3.27;2.93;;;14.80;97.30;14.70;100954;;;;585779;241;24109;-77
2022/05/01 07:00:45;;;;;;;3.73;2.97;;;15.30;95.20;15.00;100962;;;;586167;241;24062;-75
2022/05/01 07:03:14;;;;;;;5.03;2.87;;;16.60;92.80;16.30;100967;;;;585756;241;24059;-75
2022/05/01 07:05:43;;;;;;;2.97;2.67;;;17.80;88.20;17.30;100979;;;;585743;241;24051;-75
2022/05/01 07:08:10;;;;;;;5.73;3.03;;;17.70;88.00;18.00;100982;;;;585568;241;24060;-76
2022/05/01 07:10:38;;;;;;;3.63;2.70;;;18.60;80.80;18.10;100987;;;;585725;241;24079;-75
2022/05/01 07:13:06;;;;;;;3.97;2.90;;;18.80;75.60;17.90;100990;;;;585682;241;24057;-78
2022/05/01 07:15:34;;;;;;;3.40;2.23;;;18.70;74.40;17.50;100986;;;;585787;241;24092;-79
2022/05/01 07:18:02;;;;;;;3.33;2.27;;;18.40;71.60;16.90;100984;;;;585547;241;24094;-79
2022/05/01 07:20:33;;;;;;;3.33;1.90;;;17.80;71.00;16.40;100978;;;;586960;240;24046;-76
2022/05/01 07:22:58;;;;;;;3.73;1.93;;;17.30;70.70;15.70;100978;;;;586666;240;24086;-75
2022/05/01 07:25:27;;;;;;;6.60;2.50;;;16.10;74.30;15.10;100976;;;;586459;240;24068;-75
2022/05/01 07:27:55;;;;;;;4.57;2.50;;;15.50;76.50;14.50;100969;;;;586536;240;24080;-79
2022/05/01 07:30:23;;;;;;;3.57;2.13;;;15.50;76.50;14.00;100965;;;;586147;240;24078;-77
2022/05/01 07:32:51;;;;;;;3.47;2.37;;;14.90;79.40;13.50;100971;;;;586295;240;24064;-77
2022/05/01 07:35:19;;;;;;;2.67;2.30;;;14.40;84.90;13.00;100972;;;;586196;240;24063;-76
2022/05/01 07:37:47;;;;;;;3.43;2.33;;;13.80;89.00;12.60;100972;;;;586008;240;24062;-80
2022/05/01 07:40:15;;;;;;;3.03;2.27;;;13.40;91.20;12.30;100973;;;;586201;240;24086;-80
2022/05/01 07:42:43;;;;;;;2.83;2.33;;;13.00;92.50;12.00;100979;;;;586392;240;24126;-76
2022/05/01 07:45:11;;;;;;;4.23;2.17;;;12.70;93.90;11.80;100973;;;;586397;240;24054;-79
2022/05/01 07:47:39;;;;;;;2.30;2.10;;;12.40;95.00;11.70;100974;;;;586370;240;24097;-79
2022/05/01 07:50:08;;;;;;;3.27;2.43;;;12.20;96.70;11.70;100978;;;;586187;240;24062;-78
2022/05/01 07:52:35;;;;;;;5.37;2.67;;;12.20;96.70;11.70;100976;;;;586508;240;25143;-77
2022/05/01 07:55:03;;;;;;;2.93;2.67;;;12.30;97.10;11.80;100976;;;;595427;241;24054;-77
2022/05/01 07:57:31;;;;;;;3.17;2.53;;;12.40;97.40;11.90;100966;;;;586092;241;24128;-78
2022/05/01 07:59:59;;;;;;;7.63;2.70;;;12.50;97.40;12.10;100969;;;;585670;241;24061;-76
2022/05/01 08:04:27;;;;;;;6.27;3.83;;;12.70;97.10;12.20;100967;;;;585820;241;24054;-76
2022/05/01 08:05:03;;;;;;;13.60;6.53;;;12.90;96.60;12.40;100972;;;;584654;241;24062;-76
2022/05/01 08:07:31;;;;;;;9.17;4.20;;;13.00;96.30;12.80;100971;;;;586278;241;24074;-76
2022/05/01 08:09:59;;;;;;;7.10;3.97;;;13.30;96.00;13.70;100969;;;;585695;241;24042;-77
2022/05/01 08:12:27;;;;;;;5.03;3.47;;;14.10;94.60;14.20;100973;;;;585587;241;24058;-75
2022/05/01 08:14:55;;;;;;;9.87;3.20;;;14.70;93.60;14.80;100971;;;;585760;241;24117;-74
2022/05/01 08:17:24;;;;;;;7.40;3.43;;;15.70;90.00;15.00;100972;;;;585535;241;24123;-76
2022/05/01 08:22:40;;;;;;;4.03;2.40;;;15.70;86.80;14.80;100976;;;;586051;241;24079;-75
2022/05/01 08:25:08;;;;;;;5.53;3.00;;;15.50;84.50;14.80;100963;;;;585736;241;24100;-76
2022/05/01 08:27:36;;;;;;;6.07;3.33;;;15.50;82.80;14.80;100962;;;;585683;241;24058;-76
2022/05/01 08:30:04;;;;;;;5.07;3.07;;;15.50;82.60;14.80;100966;;;;586221;241;24101;-77
2022/05/01 08:32:32;;;;;;;4.63;3.60;;;15.50;81.70;15.40;100957;;;;587699;240;24080;-77
2022/05/01 08:35:00;;;;;;;8.27;3.87;;;15.90;81.20;16.50;100963;;;;586644;240;24122;-76
2022/05/01 08:37:28;;;;;;;4.77;3.47;;;16.80;77.10;18.70;100969;;;;586548;240;24078;-76
2022/05/01 08:39:57;;;;;;;4.93;2.67;;;20.30;66.20;19.90;100970;;;;586854;240;24077;-76
2022/05/01 08:42:25;;;;;;;5.03;2.97;;;20.90;60.80;20.20;100965;;;;586522;240;25134;-76
2022/05/01 08:44:56;;;;;;;5.43;2.33;;;20.80;60.60;20.10;100967;;;;587099;240;23083;-79
2022/05/01 08:47:25;;;;;;;6.30;2.30;;;21.00;57.00;20.30;100968;;;;587112;240;23070;-77
2022/05/01 08:49:54;;;;;;;4.80;2.37;;;21.00;57.00;21.80;100960;;;;585824;240;23081;-75
2022/05/01 08:52:21;;;;;;;2.37;2.10;;;22.20;55.00;23.30;100968;;;;585703;240;24113;-77
2022/05/01 08:54:48;;;;;;;2.80;1.93;;;23.60;52.50;24.10;100964;;;;595570;240;24067;-76
2022/05/01 08:57:16;;;;;;;5.10;2.30;;;24.70;47.50;24.20;100971;;;;586296;240;24128;-77
2022/05/01 08:59:46;;;;;;;3.23;2.10;;;25.00;46.30;24.20;100971;;;;585828;240;23127;-77
2022/05/01 09:02:16;;;;;;;2.53;1.90;;;25.00;45.50;25.70;100968;;;;585874;240;23109;-77
2022/05/01 09:04:41;;;;;;;2.13;2.00;;;26.10;45.60;28.40;100979;;;;586043;240;25151;-77
2022/05/01 09:07:10;;;;;;;3.00;2.33;;;31.30;40.30;31.00;100978;;;;585826;241;23078;-79
2022/05/01 09:09:37;;;;;;;2.00;1.85;;;32.50;37.70;31.80;100990;;;;585615;241;23096;-80
2022/05/01 09:14:52;;;;;;;1.92;1.83;;;33.00;36.40;33.40;100984;;;;586554;241;23141;-76
2022/05/01 09:17:21;;;;;;;3.00;1.98;;;34.20;34.50;33.60;100991;;;;585753;241;24083;-78
2022/05/01 09:19:55;;;;;;;1.83;1.73;;;34.50;32.90;33.30;100985;;;;586540;241;23078;-76
2022/05/01 09:22:24;;;;;;;2.20;2.00;;;34.50;32.90;32.70;100992;;;;586216;241;23075;-77
2022/05/01 09:24:55;;;;;;;3.15;1.92;;;33.40;32.80;31.90;100992;;;;585644;241;23066;-77
2022/05/01 09:27:31;;;;;;;2.20;1.80;;;33.40;32.80;31.00;100983;;;;585710;241;24090;-77
2022/05/01 09:30:09;;;;;;;2.30;1.80;;;31.70;33.30;30.10;100983;;;;585999;241;23089;-78
2022/05/01 09:32:37;;;;;;;3.33;1.95;;;31.60;33.20;29.30;100989;;;;586240;241;24073;-79
2022/05/01 09:35:11;;;;;;;3.92;1.80;;;30.70;34.10;28.50;100984;;;;585531;241;23089;-77
2022/05/01 09:37:40;;;;;;;2.62;2.28;;;30.30;36.00;29.90;100980;;;;586188;241;24130;-76
2022/05/01 09:40:09;;;;;;;3.47;2.17;;;32.10;34.50;31.70;100981;;;;585655;241;23140;-79
2022/05/01 09:42:37;;;;;;;5.37;2.03;;;32.00;34.40;32.30;100985;;;;596380;239;24086;-78
2022/05/01 09:45:15;;;;;;;5.55;1.90;;;33.00;33.50;32.60;100988;;;;587355;240;23062;-77
2022/05/01 09:47:42;;;;;;;1.92;1.83;;;33.60;33.20;32.20;100985;;;;587259;240;23077;-76
2022/05/01 09:50:10;;;;;;;4.40;2.12;;;33.40;33.00;31.30;100984;;;;586291;236;23145;-77
2022/05/01 09:52:59;;;;;;;6.72;2.05;;;32.80;33.10;30.50;100981;;;;595871;237;23103;-77
2022/05/01 09:55:27;;;;;;;2.60;1.95;;;31.90;33.90;29.50;100971;;;;585905;240;24100;-78
2022/05/01 09:58:10;;;;;;;4.28;2.50;;;30.80;34.80;30.00;100980;;;;586533;240;23129;-78
2022/05/01 10:00:44;;;;;;;3.10;2.65;;;30.60;35.30;29.80;100976;;;;586255;240;24098;-78
2022/05/01 10:03:36;;;;;;;4.07;2.40;;;30.60;35.30;29.40;100976;;;;586263;240;23133;-78
2022/05/01 10:05:56;;;;;;;4.78;2.60;;;29.80;36.60;28.90;100970;;;;594980;240;23128;-78
2022/05/01 10:08:24;;;;;;;4.18;2.25;;;29.70;36.50;28.60;100968;;;;586259;240;23114;-77
2022/05/01 10:10:58;;;;;;;3.37;2.10;;;29.40;37.10;28.40;100976;;;;586114;240;23074;-77
2022/05/01 10:13:26;;;;;;;5.25;2.20;;;29.20;37.60;28.00;100969;;;;586138;240;24214;-77
2022/05/01 10:15:54;;;;;;;3.30;2.47;;;28.90;37.60;27.30;100973;;;;586096;240;24174;-79
2022/05/01 10:18:22;;;;;;;2.67;2.47;;;28.40;37.80;26.70;100966;;;;586174;241;23089;-76
2022/05/01 10:20:49;;;;;;;9.98;2.45;;;27.70;38.40;26.60;100965;;;;594978;241;24097;-77
2022/05/01 10:23:17;;;;;;;2.70;1.98;;;27.30;39.60;27.40;100956;;;;585561;241;23117;-76
2022/05/01 10:25:51;;;;;;;4.17;2.10;;;27.90;39.40;28.20;100963;;;;585418;241;23063;-77
2022/05/01 10:28:53;;;;;;;6.53;4.60;;;28.70;38.80;28.80;100953;;;;585853;241;23102;-77
2022/05/01 10:35:45;;;;;;;4.70;2.50;;;29.80;37.90;29.10;100957;;;;586373;241;23097;-77
2022/05/01 10:38:23;;;;;;;3.12;2.85;;;29.90;37.80;28.60;100955;;;;586228;241;23101;-77
2022/05/01 10:40:56;;;;;;;3.22;2.80;;;29.50;37.80;28.20;100954;;;;583603;241;23118;-78
2022/05/01 10:43:24;;;;;;;4.57;3.67;;;29.00;38.50;27.90;100950;;;;586139;241;23095;-76
2022/05/01 10:45:53;;;;;;;3.97;2.83;;;28.60;39.20;27.50;100955;;;;586211;241;23091;-79
2022/05/01 10:48:37;;;;;;;2.90;2.40;;;28.10;39.00;27.30;100944;;;;585267;241;23080;-78
2022/05/01 10:51:39;;;;;;;3.27;2.10;;;27.90;39.90;27.10;100947;;;;584021;241;23078;-77
2022/05/01 10:54:19;;;;;;;3.47;3.17;;;27.60;40.40;26.90;100950;;;;587145;240;23121;-78
2022/05/01 10:56:49;;;;;;;4.13;3.73;;;27.40;40.10;26.30;100946;;;;586697;240;23132;-78
2022/05/01 10:59:38;;;;;;;10.47;6.53;;;27.00;40.70;25.40;100942;;;;586959;240;23093;-75
2022/05/01 11:02:00;;;;;;;4.77;2.27;;;26.20;41.60;24.50;100936;;;;595686;240;24210;-76
2022/05/01 11:04:32;;;;;;;2.93;2.33;;;25.40;42.10;23.90;100934;;;;585937;240;23095;-76
2022/05/01 11:06:59;;;;;;;3.93;2.20;;;24.70;42.90;23.60;100934;;;;585111;240;24053;-80
2022/05/01 11:09:27;;;;;;;8.33;3.20;;;24.20;44.00;23.30;100931;;;;586027;240;23117;-78
2022/05/01 11:11:57;;;;;;;8.10;3.03;;;23.90;44.20;22.80;100937;;;;586019;240;24099;-76
2022/05/01 11:14:44;;;;;;;4.50;3.60;;;23.40;45.00;22.60;100934;;;;586280;240;24178;-77
2022/05/01 11:17:08;;;;;;;6.10;2.40;;;23.10;45.80;22.50;100931;;;;585799;240;24112;-75
2022/05/01 11:19:46;;;;;;;3.47;2.50;;;22.70;46.40;22.20;100938;;;;596501;240;24087;-77
2022/05/01 11:22:17;;;;;;;5.77;2.83;;;22.60;46.40;22.00;100931;;;;586073;240;24101;-77
2022/05/01 11:24:45;;;;;;;6.97;4.97;;;22.50;46.90;21.70;100923;;;;586163;240;24086;-80
2022/05/01 11:27:14;;;;;;;3.03;2.83;;;22.20;47.00;21.70;100923;;;;585483;240;23184;-79
2022/05/01 11:29:41;;;;;;;2.70;2.40;;;22.10;47.40;21.70;100921;;;;586280;241;24116;-80
2022/05/01 11:32:18;;;;;;;4.27;2.47;;;22.10;47.50;21.40;100944;;;;582690;241;24056;-81
2022/05/01 11:34:50;;;;;;;10.27;3.03;;;21.60;47.50;21.00;100936;;;;586241;237;24063;-79
2022/05/01 11:37:17;;;;;;;3.57;2.87;;;21.60;47.40;20.70;100940;;;;585864;241;24097;-81
2022/05/01 11:39:51;;;;;;;3.00;2.70;;;21.40;48.00;20.50;100936;;;;585889;241;24124;-78
2022/05/01 11:42:25;;;;;;;2.90;2.70;;;21.10;48.10;20.20;100932;;;;585841;241;24049;-78
2022/05/01 11:44:54;;;;;;;2.97;2.77;;;20.60;48.80;19.80;100938;;;;585877;241;23070;-76
2022/05/01 11:47:26;;;;;;;5.70;2.77;;;20.20;49.10;19.40;100938;;;;585472;241;24078;-77
2022/05/01 11:49:53;;;;;;;4.17;2.60;;;20.20;49.10;18.90;100937;;;;585695;241;23170;-76
2022/05/01 11:52:22;;;;;;;3.40;2.60;;;19.70;49.20;18.50;100941;;;;585938;241;24046;-78